createdAt,value
2023-05-11T00:00:02.001Z,1013.35
2023-05-11T00:01:08.532Z,1013.41
2023-05-11T00:02:01.099Z,1013.42
2023-05-11T00:03:01.869Z,1013.45
2023-05-11T00:04:01.842Z,1013.43
2023-05-11T00:05:01.075Z,1013.43
2023-05-11T00:06:11.188Z,1013.39
2023-05-11T00:07:01.829Z,1013.38
2023-05-11T00:08:01.076Z,1013.4
2023-05-11T00:09:01.071Z,1013.38
2023-05-11T00:10:01.116Z,1013.43
2023-05-11T00:11:14.273Z,1013.44
2023-05-11T00:12:01.368Z,1013.45
2023-05-11T00:13:01.912Z,1013.41
2023-05-11T00:14:01.112Z,1013.39
2023-05-11T00:15:01.265Z,1013.42
2023-05-11T00:16:01.580Z,1013.45
2023-05-11T00:17:01.031Z,1013.46
2023-05-11T00:18:01.082Z,1013.43
2023-05-11T00:19:01.332Z,1013.47
2023-05-11T00:20:01.070Z,1013.45
2023-05-11T00:21:01.092Z,1013.43
2023-05-11T00:22:01.451Z,1013.49
2023-05-11T00:23:01.123Z,1013.46
2023-05-11T00:24:01.037Z,1013.46
2023-05-11T00:25:01.027Z,1013.46
2023-05-11T00:26:01.122Z,1013.46
2023-05-11T00:27:01.104Z,1013.43
2023-05-11T00:28:01.115Z,1013.47
2023-05-11T00:29:01.378Z,1013.44
2023-05-11T00:30:01.429Z,1013.48
2023-05-11T00:31:02.056Z,1013.43
2023-05-11T00:32:01.124Z,1013.42
2023-05-11T00:33:01.077Z,1013.41
2023-05-11T00:34:00.917Z,1013.42
2023-05-11T00:35:01.293Z,1013.37
2023-05-11T00:36:01.246Z,1013.43
2023-05-11T00:37:01.442Z,1013.38
2023-05-11T00:38:02.221Z,1013.41
2023-05-11T00:39:01.180Z,1013.36
2023-05-11T00:40:01.078Z,1013.43
2023-05-11T00:41:01.075Z,1013.43
2023-05-11T00:42:01.079Z,1013.42
2023-05-11T00:43:01.131Z,1013.4
2023-05-11T00:44:01.102Z,1013.34
2023-05-11T00:45:01.008Z,1013.37
2023-05-11T00:46:01.817Z,1013.34
2023-05-11T00:47:02.284Z,1013.36
2023-05-11T00:48:01.419Z,1013.35
2023-05-11T00:49:02.045Z,1013.34
2023-05-11T00:50:01.031Z,1013.41
2023-05-11T00:51:00.745Z,1013.39
2023-05-11T00:52:00.331Z,1013.38
2023-05-11T00:53:00.013Z,1013.4
2023-05-11T00:53:59.625Z,1013.42
2023-05-11T00:55:01.403Z,1013.41
2023-05-11T00:56:01.863Z,1013.4
2023-05-11T00:57:01.038Z,1013.46
2023-05-11T00:58:01.008Z,1013.42
2023-05-11T00:59:01.020Z,1013.45
2023-05-11T01:00:01.183Z,1013.45
2023-05-11T01:01:00.679Z,1013.45
2023-05-11T01:02:00.350Z,1013.47
2023-05-11T01:03:00.136Z,1013.5
2023-05-11T01:03:59.845Z,1013.49
2023-05-11T01:05:01.605Z,1013.47
2023-05-11T01:06:00.839Z,1013.45
2023-05-11T01:07:00.434Z,1013.47
2023-05-11T01:08:00.174Z,1013.45
2023-05-11T01:08:59.860Z,1013.46
2023-05-11T01:10:01.596Z,1013.5
2023-05-11T01:11:00.534Z,1013.45
2023-05-11T01:12:00.308Z,1013.45
2023-05-11T01:12:59.934Z,1013.46
2023-05-11T01:13:59.966Z,1013.43
2023-05-11T01:14:59.653Z,1013.44
2023-05-11T01:16:03.462Z,1013.43
2023-05-11T01:17:01.238Z,1013.43
2023-05-11T01:18:01.178Z,1013.46
2023-05-11T01:19:01.251Z,1013.45
2023-05-11T01:20:01.253Z,1013.46
2023-05-11T01:21:01.504Z,1013.48
2023-05-11T01:22:01.037Z,1013.52
2023-05-11T01:23:01.050Z,1013.45
2023-05-11T01:24:00.628Z,1013.45
2023-05-11T01:25:00.245Z,1013.46
2023-05-11T01:25:59.830Z,1013.5
2023-05-11T01:27:08.634Z,1013.49
2023-05-11T01:28:01.472Z,1013.49
2023-05-11T01:29:01.471Z,1013.48
2023-05-11T01:30:00.287Z,1013.49
2023-05-11T01:30:59.855Z,1013.46
2023-05-11T01:32:03.262Z,1013.49
2023-05-11T01:33:01.674Z,1013.46
2023-05-11T01:34:01.352Z,1013.47
2023-05-11T01:35:02.365Z,1013.54
2023-05-11T01:36:02.068Z,1013.53
2023-05-11T01:37:06.080Z,1013.54
2023-05-11T01:38:02.617Z,1013.52
2023-05-11T01:39:01.023Z,1013.53
2023-05-11T01:40:01.043Z,1013.53
2023-05-11T01:41:00.743Z,1013.55
2023-05-11T01:42:08.136Z,1013.54
2023-05-11T01:43:02.485Z,1013.58
2023-05-11T01:44:01.099Z,1013.59
2023-05-11T01:45:01.081Z,1013.55
2023-05-11T01:46:01.325Z,1013.57
2023-05-11T01:47:11.933Z,1013.57
2023-05-11T01:48:01.154Z,1013.65
2023-05-11T01:49:01.010Z,1013.57
2023-05-11T01:50:01.111Z,1013.61
2023-05-11T01:51:00.714Z,1013.62
2023-05-11T01:52:13.918Z,1013.61
2023-05-11T01:53:02.440Z,1013.65
2023-05-11T01:54:01.717Z,1013.67
2023-05-11T01:55:01.050Z,1013.65
2023-05-11T01:56:01.037Z,1013.65
2023-05-11T01:57:01.170Z,1013.67
2023-05-11T01:58:01.068Z,1013.67
2023-05-11T01:59:01.103Z,1013.67
2023-05-11T02:00:01.087Z,1013.66
2023-05-11T02:01:01.122Z,1013.71
2023-05-11T02:02:01.128Z,1013.7
2023-05-11T02:03:01.112Z,1013.71
2023-05-11T02:04:01.216Z,1013.72
2023-05-11T02:05:01.480Z,1013.71
2023-05-11T02:06:00.790Z,1013.73
2023-05-11T02:07:00.427Z,1013.76
2023-05-11T02:08:00.012Z,1013.73
2023-05-11T02:08:59.608Z,1013.72
2023-05-11T02:10:01.727Z,1013.73
2023-05-11T02:11:01.749Z,1013.72
2023-05-11T02:12:02.582Z,1013.74
2023-05-11T02:13:01.416Z,1013.73
2023-05-11T02:14:01.479Z,1013.78
2023-05-11T02:15:02.323Z,1013.78
2023-05-11T02:16:01.405Z,1013.77
2023-05-11T02:17:01.180Z,1013.75
2023-05-11T02:18:01.370Z,1013.79
2023-05-11T02:19:02.483Z,1013.79
2023-05-11T02:20:02.438Z,1013.82
2023-05-11T02:21:02.445Z,1013.78
2023-05-11T02:22:01.331Z,1013.79
2023-05-11T02:23:01.594Z,1013.8
2023-05-11T02:24:01.033Z,1013.8
2023-05-11T02:25:02.021Z,1013.82
2023-05-11T02:26:01.048Z,1013.82
2023-05-11T02:27:01.033Z,1013.85
2023-05-11T02:28:01.035Z,1013.83
2023-05-11T02:29:01.072Z,1013.83
2023-05-11T02:30:01.074Z,1013.8
2023-05-11T02:31:00.689Z,1013.84
2023-05-11T02:32:00.461Z,1013.8
2023-05-11T02:33:00.070Z,1013.82
2023-05-11T02:33:59.898Z,1013.86
2023-05-11T02:34:59.582Z,1013.91
2023-05-11T02:36:01.225Z,1013.88
2023-05-11T02:37:01.067Z,1013.93
2023-05-11T02:38:01.027Z,1013.88
2023-05-11T02:39:01.643Z,1013.93
2023-05-11T02:40:01.483Z,1013.92
2023-05-11T02:41:01.665Z,1013.9
2023-05-11T02:42:01.433Z,1013.9
2023-05-11T02:43:01.011Z,1013.89
2023-05-11T02:44:01.055Z,1013.87
2023-05-11T02:45:01.076Z,1013.89
2023-05-11T02:46:00.657Z,1013.85
2023-05-11T02:47:00.484Z,1013.89
2023-05-11T02:48:00.218Z,1013.86
2023-05-11T02:49:00.038Z,1013.85
2023-05-11T02:49:59.769Z,1013.82
2023-05-11T02:51:02.408Z,1013.86
2023-05-11T02:52:01.406Z,1013.88
2023-05-11T02:53:01.028Z,1013.88
2023-05-11T02:54:01.437Z,1013.85
2023-05-11T02:55:01.130Z,1013.89
2023-05-11T02:56:00.734Z,1013.86
2023-05-11T02:57:00.346Z,1013.85
2023-05-11T02:57:59.930Z,1013.87
2023-05-11T02:59:00.139Z,1013.89
2023-05-11T03:00:00.263Z,1013.92
2023-05-11T03:01:00.245Z,1013.9
2023-05-11T03:02:00.368Z,1013.9
2023-05-11T03:03:00.215Z,1013.91
2023-05-11T03:04:00.017Z,1013.92
2023-05-11T03:04:59.696Z,1013.89
2023-05-11T03:06:02.043Z,1013.87
2023-05-11T03:07:01.958Z,1013.91
2023-05-11T03:08:01.100Z,1013.9
2023-05-11T03:09:01.388Z,1013.94
2023-05-11T03:10:01.518Z,1013.96
2023-05-11T03:11:01.156Z,1013.94
2023-05-11T03:12:01.862Z,1013.9
2023-05-11T03:13:01.897Z,1013.92
2023-05-11T03:14:02.081Z,1013.92
2023-05-11T03:15:01.063Z,1013.91
2023-05-11T03:16:00.640Z,1013.92
2023-05-11T03:17:00.424Z,1013.9
2023-05-11T03:18:01.113Z,1013.93
2023-05-11T03:19:01.185Z,1013.89
2023-05-11T03:20:01.076Z,1013.86
2023-05-11T03:21:00.660Z,1013.91
2023-05-11T03:22:00.365Z,1013.92
2023-05-11T03:23:03.690Z,1013.88
2023-05-11T03:24:02.458Z,1013.91
2023-05-11T03:25:01.950Z,1013.91
2023-05-11T03:26:00.696Z,1013.94
2023-05-11T03:27:00.378Z,1013.93
2023-05-11T03:28:05.973Z,1013.96
2023-05-11T03:29:02.979Z,1013.96
2023-05-11T03:30:01.511Z,1013.91
2023-05-11T03:31:00.626Z,1013.96
2023-05-11T03:32:00.332Z,1013.91
2023-05-11T03:33:07.769Z,1013.88
2023-05-11T03:34:00.968Z,1013.92
2023-05-11T03:35:01.123Z,1013.95
2023-05-11T03:36:00.565Z,1013.94
2023-05-11T03:37:00.142Z,1013.91
2023-05-11T03:38:09.800Z,1013.9
2023-05-11T03:39:01.134Z,1013.89
2023-05-11T03:40:01.240Z,1013.87
2023-05-11T03:41:00.812Z,1013.89
2023-05-11T03:42:00.431Z,1013.9
2023-05-11T03:43:16.068Z,1013.92
2023-05-11T03:44:01.033Z,1013.88
2023-05-11T03:45:01.050Z,1013.91
2023-05-11T03:46:00.558Z,1013.94
2023-05-11T03:47:00.340Z,1013.89
2023-05-11T03:48:15.198Z,1013.94
2023-05-11T03:49:01.330Z,1013.89
2023-05-11T03:50:02.017Z,1013.91
2023-05-11T03:51:00.984Z,1013.87
2023-05-11T03:52:01.092Z,1013.91
2023-05-11T03:53:01.084Z,1013.92
2023-05-11T03:54:01.114Z,1013.95
2023-05-11T03:55:01.111Z,1013.92
2023-05-11T03:56:00.687Z,1014
2023-05-11T03:57:00.288Z,1013.97
2023-05-11T03:58:01.348Z,1013.91
2023-05-11T03:59:01.416Z,1013.9
2023-05-11T04:00:01.779Z,1013.94
2023-05-11T04:01:01.169Z,1013.93
2023-05-11T04:02:01.056Z,1013.86
2023-05-11T04:03:01.165Z,1013.84
2023-05-11T04:04:01.320Z,1013.95
2023-05-11T04:05:01.839Z,1013.92
2023-05-11T04:06:00.662Z,1013.94
2023-05-11T04:07:00.376Z,1013.94
2023-05-11T04:07:59.979Z,1013.93
2023-05-11T04:08:59.540Z,1013.92
2023-05-11T04:10:01.316Z,1013.94
2023-05-11T04:11:01.002Z,1013.97
2023-05-11T04:12:01.168Z,1013.96
2023-05-11T04:13:01.130Z,1013.94
2023-05-11T04:14:01.500Z,1013.91
2023-05-11T04:15:01.062Z,1013.94
2023-05-11T04:16:00.760Z,1013.93
2023-05-11T04:17:00.442Z,1013.97
2023-05-11T04:18:00.487Z,1013.92
2023-05-11T04:19:00.552Z,1013.95
2023-05-11T04:20:00.367Z,1013.96
2023-05-11T04:20:59.937Z,1013.93
2023-05-11T04:21:59.524Z,1013.98
2023-05-11T04:23:01.097Z,1013.97
2023-05-11T04:24:01.099Z,1013.97
2023-05-11T04:25:01.107Z,1013.95
2023-05-11T04:26:01.647Z,1013.96
2023-05-11T04:27:01.125Z,1014
2023-05-11T04:28:01.108Z,1014
2023-05-11T04:29:01.125Z,1013.95
2023-05-11T04:30:01.231Z,1013.99
2023-05-11T04:31:00.934Z,1013.99
2023-05-11T04:32:01.391Z,1014.02
2023-05-11T04:33:01.067Z,1014.03
2023-05-11T04:34:01.025Z,1014.05
2023-05-11T04:35:00.614Z,1014.05
2023-05-11T04:36:00.242Z,1014.04
2023-05-11T04:36:59.804Z,1014.04
2023-05-11T04:38:01.756Z,1014.07
2023-05-11T04:39:01.749Z,1014.05
2023-05-11T04:40:01.760Z,1014.04
2023-05-11T04:41:01.559Z,1014.08
2023-05-11T04:42:01.123Z,1014.07
2023-05-11T04:43:01.226Z,1014.13
2023-05-11T04:44:01.132Z,1014.09
2023-05-11T04:45:01.137Z,1014.05
2023-05-11T04:46:00.703Z,1014.07
2023-05-11T04:47:00.341Z,1014.1
2023-05-11T04:48:00.167Z,1014.08
2023-05-11T04:48:59.960Z,1014.07
2023-05-11T04:49:59.630Z,1014.07
2023-05-11T04:51:01.271Z,1014.1
2023-05-11T04:52:01.886Z,1014.12
2023-05-11T04:53:01.969Z,1014.12
2023-05-11T04:54:01.072Z,1014.18
2023-05-11T04:55:01.093Z,1014.15
2023-05-11T04:56:00.975Z,1014.16
2023-05-11T04:57:01.483Z,1014.14
2023-05-11T04:58:02.141Z,1014.18
2023-05-11T04:59:02.450Z,1014.2
2023-05-11T05:00:01.176Z,1014.17
2023-05-11T05:01:01.039Z,1014.2
2023-05-11T05:02:01.037Z,1014.21
2023-05-11T05:03:01.104Z,1014.21
2023-05-11T05:04:00.847Z,1014.19
2023-05-11T05:05:01.416Z,1014.2
2023-05-11T05:06:01.072Z,1014.21
2023-05-11T05:07:01.111Z,1014.18
2023-05-11T05:08:00.759Z,1014.26
2023-05-11T05:09:04.659Z,1014.22
2023-05-11T05:10:01.075Z,1014.26
2023-05-11T05:11:00.700Z,1014.18
2023-05-11T05:12:00.372Z,1014.24
2023-05-11T05:12:59.989Z,1014.23
2023-05-11T05:14:05.263Z,1014.22
2023-05-11T05:15:01.400Z,1014.22
2023-05-11T05:16:01.303Z,1014.26
2023-05-11T05:17:01.645Z,1014.19
2023-05-11T05:18:01.994Z,1014.24
2023-05-11T05:19:07.858Z,1014.22
2023-05-11T05:20:01.095Z,1014.17
2023-05-11T05:21:00.537Z,1014.21
2023-05-11T05:22:00.186Z,1014.21
2023-05-11T05:22:59.942Z,1014.25
2023-05-11T05:24:09.042Z,1014.26
2023-05-11T05:25:01.091Z,1014.22
2023-05-11T05:26:00.657Z,1014.21
2023-05-11T05:27:00.264Z,1014.24
2023-05-11T05:28:00.016Z,1014.27
2023-05-11T05:29:10.165Z,1014.29
2023-05-11T05:30:01.552Z,1014.29
2023-05-11T05:31:01.339Z,1014.29
2023-05-11T05:32:01.118Z,1014.3
2023-05-11T05:33:01.162Z,1014.31
2023-05-11T05:34:16.465Z,1014.33
2023-05-11T05:35:01.253Z,1014.32
2023-05-11T05:36:00.820Z,1014.33
2023-05-11T05:37:00.680Z,1014.31
2023-05-11T05:38:00.407Z,1014.33
2023-05-11T05:39:00.104Z,1014.28
2023-05-11T05:39:59.726Z,1014.28
2023-05-11T05:41:01.362Z,1014.29
2023-05-11T05:42:01.092Z,1014.31
2023-05-11T05:43:01.114Z,1014.32
2023-05-11T05:44:01.144Z,1014.34
2023-05-11T05:45:01.485Z,1014.32
2023-05-11T05:46:01.952Z,1014.34
2023-05-11T05:47:01.112Z,1014.33
2023-05-11T05:48:01.142Z,1014.33
2023-05-11T05:49:01.126Z,1014.41
2023-05-11T05:50:01.044Z,1014.37
2023-05-11T05:51:00.721Z,1014.4
2023-05-11T05:52:00.785Z,1014.37
2023-05-11T05:53:00.815Z,1014.4
2023-05-11T05:54:00.517Z,1014.41
2023-05-11T05:55:00.460Z,1014.47
2023-05-11T05:56:00.048Z,1014.47
2023-05-11T05:56:59.776Z,1014.47
2023-05-11T05:58:01.759Z,1014.45
2023-05-11T05:59:01.789Z,1014.49
2023-05-11T06:00:01.378Z,1014.53
2023-05-11T06:01:01.734Z,1014.48
2023-05-11T06:02:01.405Z,1014.44
2023-05-11T06:03:02.452Z,1014.5
2023-05-11T06:04:02.529Z,1014.53
2023-05-11T06:05:01.326Z,1014.53
2023-05-11T06:06:00.910Z,1014.56
2023-05-11T06:07:01.158Z,1014.57
2023-05-11T06:08:10.061Z,1014.57
2023-05-11T06:09:02.416Z,1014.57
2023-05-11T06:10:07.659Z,1014.54
2023-05-11T06:11:00.954Z,1014.55
2023-05-11T06:12:01.280Z,1014.53
2023-05-11T06:13:01.401Z,1014.57
2023-05-11T06:14:01.401Z,1014.56
2023-05-11T06:15:01.041Z,1014.57
2023-05-11T06:16:00.737Z,1014.54
2023-05-11T06:17:00.332Z,1014.56
2023-05-11T06:17:59.888Z,1014.58
2023-05-11T06:18:59.465Z,1014.55
2023-05-11T06:20:01.039Z,1014.51
2023-05-11T06:21:00.649Z,1014.53
2023-05-11T06:22:00.195Z,1014.53
2023-05-11T06:22:59.786Z,1014.53
2023-05-11T06:24:01.446Z,1014.57
2023-05-11T06:25:01.031Z,1014.52
2023-05-11T06:26:00.647Z,1014.57
2023-05-11T06:27:00.260Z,1014.53
2023-05-11T06:28:00.032Z,1014.56
2023-05-11T06:28:59.632Z,1014.55
2023-05-11T06:30:01.656Z,1014.55
2023-05-11T06:31:01.627Z,1014.58
2023-05-11T06:32:01.504Z,1014.58
2023-05-11T06:33:01.493Z,1014.51
2023-05-11T06:34:02.175Z,1014.56
2023-05-11T06:35:01.249Z,1014.54
2023-05-11T06:36:01.933Z,1014.54
2023-05-11T06:37:01.470Z,1014.55
2023-05-11T06:38:01.691Z,1014.52
2023-05-11T06:39:01.380Z,1014.5
2023-05-11T06:40:02.380Z,1014.53
2023-05-11T06:41:02.096Z,1014.56
2023-05-11T06:42:05.749Z,1014.54
2023-05-11T06:43:01.059Z,1014.52
2023-05-11T06:44:01.069Z,1014.53
2023-05-11T06:45:00.802Z,1014.57
2023-05-11T06:46:00.517Z,1014.49
2023-05-11T06:47:00.328Z,1014.51
2023-05-11T06:47:59.942Z,1014.52
2023-05-11T06:49:00.042Z,1014.53
2023-05-11T06:49:59.917Z,1014.57
2023-05-11T06:50:59.930Z,1014.54
2023-05-11T06:51:59.647Z,1014.56
2023-05-11T06:53:01.343Z,1014.54
2023-05-11T06:54:01.035Z,1014.54
2023-05-11T06:55:00.765Z,1014.56
2023-05-11T06:56:00.393Z,1014.53
2023-05-11T06:57:00.010Z,1014.55
2023-05-11T06:57:59.619Z,1014.6
2023-05-11T06:59:01.265Z,1014.56
2023-05-11T07:00:01.727Z,1014.57
2023-05-11T07:01:01.005Z,1014.53
2023-05-11T07:02:02.314Z,1014.53
2023-05-11T07:03:01.810Z,1014.52
2023-05-11T07:04:02.047Z,1014.47
2023-05-11T07:05:04.723Z,1014.55
2023-05-11T07:06:01.128Z,1014.51
2023-05-11T07:07:00.708Z,1014.51
2023-05-11T07:08:00.535Z,1014.5
2023-05-11T07:09:00.114Z,1014.48
2023-05-11T07:10:06.695Z,1014.47
2023-05-11T07:11:01.048Z,1014.48
2023-05-11T07:12:01.068Z,1014.49
2023-05-11T07:13:01.053Z,1014.5
2023-05-11T07:14:01.058Z,1014.54
2023-05-11T07:15:10.368Z,1014.5
2023-05-11T07:16:01.449Z,1014.49
2023-05-11T07:17:01.105Z,1014.51
2023-05-11T07:18:01.155Z,1014.56
2023-05-11T07:19:01.586Z,1014.54
2023-05-11T07:20:14.964Z,1014.53
2023-05-11T07:21:01.365Z,1014.55
2023-05-11T07:22:00.691Z,1014.51
2023-05-11T07:23:00.310Z,1014.49
2023-05-11T07:23:59.997Z,1014.54
2023-05-11T07:24:59.689Z,1014.52
2023-05-11T07:26:01.334Z,1014.55
2023-05-11T07:27:00.995Z,1014.49
2023-05-11T07:28:01.041Z,1014.45
2023-05-11T07:29:01.045Z,1014.55
2023-05-11T07:30:01.063Z,1014.53
2023-05-11T07:31:01.084Z,1014.49
2023-05-11T07:32:01.070Z,1014.49
2023-05-11T07:33:01.140Z,1014.49
2023-05-11T07:34:01.082Z,1014.51
2023-05-11T07:35:01.124Z,1014.53
2023-05-11T07:36:01.491Z,1014.52
2023-05-11T07:37:01.095Z,1014.58
2023-05-11T07:38:01.131Z,1014.54
2023-05-11T07:39:01.144Z,1014.59
2023-05-11T07:40:01.137Z,1014.58
2023-05-11T07:41:01.319Z,1014.58
2023-05-11T07:42:02.173Z,1014.6
2023-05-11T07:43:01.395Z,1014.64
2023-05-11T07:44:01.836Z,1014.64
2023-05-11T07:45:01.065Z,1014.63
2023-05-11T07:46:00.822Z,1014.64
2023-05-11T07:47:00.725Z,1014.65
2023-05-11T07:48:00.501Z,1014.64
2023-05-11T07:49:13.681Z,1014.64
2023-05-11T07:50:01.143Z,1014.67
2023-05-11T07:51:01.305Z,1014.65
2023-05-11T07:52:02.145Z,1014.58
2023-05-11T07:53:01.498Z,1014.63
2023-05-11T07:54:01.239Z,1014.63
2023-05-11T07:55:01.112Z,1014.64
2023-05-11T07:56:01.045Z,1014.61
2023-05-11T07:57:01.045Z,1014.66
2023-05-11T07:58:01.040Z,1014.71
2023-05-11T07:59:01.044Z,1014.69
2023-05-11T08:00:00.625Z,1014.7
2023-05-11T08:01:00.463Z,1014.63
2023-05-11T08:02:00.300Z,1014.68
2023-05-11T08:03:00.095Z,1014.66
2023-05-11T08:03:59.934Z,1014.67
2023-05-11T08:04:59.533Z,1014.7
2023-05-11T08:06:01.198Z,1014.69
2023-05-11T08:07:00.892Z,1014.73
2023-05-11T08:08:01.103Z,1014.71
2023-05-11T08:09:01.126Z,1014.73
2023-05-11T08:10:01.128Z,1014.74
2023-05-11T08:11:01.116Z,1014.73
2023-05-11T08:12:01.417Z,1014.62
2023-05-11T08:13:01.145Z,1014.67
2023-05-11T08:14:01.032Z,1014.66
2023-05-11T08:15:01.300Z,1014.65
2023-05-11T08:16:01.699Z,1014.68
2023-05-11T08:17:01.071Z,1014.65
2023-05-11T08:18:01.098Z,1014.62
2023-05-11T08:19:01.147Z,1014.65
2023-05-11T08:20:01.048Z,1014.66
2023-05-11T08:21:01.089Z,1014.7
2023-05-11T08:22:01.503Z,1014.72
2023-05-11T08:23:01.485Z,1014.64
2023-05-11T08:24:01.067Z,1014.66
2023-05-11T08:25:01.047Z,1014.73
2023-05-11T08:26:01.132Z,1014.73
2023-05-11T08:27:01.249Z,1014.75
2023-05-11T08:28:01.337Z,1014.73
2023-05-11T08:29:01.357Z,1014.7
2023-05-11T08:30:01.654Z,1014.71
2023-05-11T08:31:01.085Z,1014.78
2023-05-11T08:32:01.185Z,1014.69
2023-05-11T08:33:01.114Z,1014.69
2023-05-11T08:34:01.186Z,1014.73
2023-05-11T08:35:01.366Z,1014.7
2023-05-11T08:36:01.115Z,1014.76
2023-05-11T08:37:01.810Z,1014.78
2023-05-11T08:38:02.135Z,1014.76
2023-05-11T08:39:01.531Z,1014.74
2023-05-11T08:40:01.317Z,1014.8
2023-05-11T08:41:01.137Z,1014.81
2023-05-11T08:42:01.129Z,1014.72
2023-05-11T08:43:01.115Z,1014.74
2023-05-11T08:44:01.040Z,1014.7
2023-05-11T08:45:01.140Z,1014.7
2023-05-11T08:46:01.164Z,1014.66
2023-05-11T08:47:18.878Z,1014.66
2023-05-11T08:48:01.431Z,1014.68
2023-05-11T08:49:02.366Z,1014.74
2023-05-11T08:50:02.466Z,1014.67
2023-05-11T08:51:03.614Z,1014.71
2023-05-11T08:52:01.767Z,1014.76
2023-05-11T08:53:01.751Z,1014.76
2023-05-11T08:54:01.692Z,1014.75
2023-05-11T08:55:01.781Z,1014.72
2023-05-11T08:56:06.234Z,1014.68
2023-05-11T08:57:01.775Z,1014.65
2023-05-11T08:58:01.150Z,1014.74
2023-05-11T08:59:01.133Z,1014.71
2023-05-11T09:00:01.157Z,1014.75
2023-05-11T09:01:09.415Z,1014.72
2023-05-11T09:02:01.058Z,1014.73
2023-05-11T09:03:01.179Z,1014.72
2023-05-11T09:04:01.228Z,1014.73
2023-05-11T09:05:01.093Z,1014.66
2023-05-11T09:06:13.390Z,1014.72
2023-05-11T09:07:02.101Z,1014.65
2023-05-11T09:08:02.088Z,1014.65
2023-05-11T09:09:01.125Z,1014.66
2023-05-11T09:10:01.212Z,1014.66
2023-05-11T09:11:15.243Z,1014.61
2023-05-11T09:12:02.550Z,1014.64
2023-05-11T09:13:01.171Z,1014.62
2023-05-11T09:14:01.188Z,1014.61
2023-05-11T09:15:02.526Z,1014.64
2023-05-11T09:16:01.195Z,1014.65
2023-05-11T09:17:01.103Z,1014.67
2023-05-11T09:18:01.050Z,1014.65
2023-05-11T09:19:01.367Z,1014.61
2023-05-11T09:20:01.110Z,1014.63
2023-05-11T09:21:01.052Z,1014.71
2023-05-11T09:22:01.070Z,1014.61
2023-05-11T09:23:01.017Z,1014.55
2023-05-11T09:24:01.437Z,1014.49
2023-05-11T09:25:01.407Z,1014.52
2023-05-11T09:26:00.987Z,1014.6
2023-05-11T09:27:01.098Z,1014.55
2023-05-11T09:28:01.317Z,1014.56
2023-05-11T09:29:03.424Z,1014.54
2023-05-11T09:30:01.441Z,1014.5
2023-05-11T09:31:01.087Z,1014.61
2023-05-11T09:32:01.151Z,1014.56
2023-05-11T09:33:01.510Z,1014.54
2023-05-11T09:34:01.166Z,1014.54
2023-05-11T09:35:01.100Z,1014.59
2023-05-11T09:36:01.058Z,1014.55
2023-05-11T09:37:01.063Z,1014.52
2023-05-11T09:38:01.096Z,1014.53
2023-05-11T09:39:01.080Z,1014.59
2023-05-11T09:41:01.112Z,1014.64
2023-05-11T09:42:01.514Z,1014.64
2023-05-11T09:43:01.309Z,1014.54
2023-05-11T09:44:01.358Z,1014.56
2023-05-11T09:45:02.029Z,1014.52
2023-05-11T09:46:01.277Z,1014.51
2023-05-11T09:47:01.048Z,1014.52
2023-05-11T09:48:01.508Z,1014.52
2023-05-11T09:49:00.778Z,1014.55
2023-05-11T09:50:00.351Z,1014.58
2023-05-11T09:50:59.925Z,1014.6
2023-05-11T09:51:59.527Z,1014.56
2023-05-11T09:53:02.896Z,1014.59
2023-05-11T09:54:04.004Z,1014.55
2023-05-11T09:55:01.087Z,1014.57
2023-05-11T09:56:01.117Z,1014.58
2023-05-11T09:57:01.105Z,1014.52
2023-05-11T09:58:01.127Z,1014.57
2023-05-11T09:59:01.125Z,1014.51
2023-05-11T10:00:01.143Z,1014.53
2023-05-11T10:01:01.067Z,1014.56
2023-05-11T10:02:01.202Z,1014.54
2023-05-11T10:03:01.217Z,1014.55
2023-05-11T10:04:17.942Z,1014.6
2023-05-11T10:05:01.576Z,1014.6
2023-05-11T10:06:01.093Z,1014.56
2023-05-11T10:07:01.127Z,1014.58
2023-05-11T10:08:01.409Z,1014.54
2023-05-11T10:09:01.042Z,1014.5
2023-05-11T10:10:01.073Z,1014.53
2023-05-11T10:11:01.035Z,1014.42
2023-05-11T10:12:01.108Z,1014.5
2023-05-11T10:13:01.106Z,1014.48
2023-05-11T10:14:00.814Z,1014.45
2023-05-11T10:15:00.545Z,1014.5
2023-05-11T10:16:00.247Z,1014.47
2023-05-11T10:16:59.889Z,1014.52
2023-05-11T10:17:59.624Z,1014.46
2023-05-11T10:19:01.249Z,1014.45
2023-05-11T10:20:02.594Z,1014.44
2023-05-11T10:21:01.965Z,1014.41
2023-05-11T10:22:01.383Z,1014.38
2023-05-11T10:23:01.432Z,1014.43
2023-05-11T10:24:02.177Z,1014.36
2023-05-11T10:25:02.812Z,1014.41
2023-05-11T10:26:01.350Z,1014.43
2023-05-11T10:27:00.580Z,1014.37
2023-05-11T10:28:00.154Z,1014.4
2023-05-11T10:28:59.774Z,1014.41
2023-05-11T10:30:01.738Z,1014.34
2023-05-11T10:31:01.406Z,1014.4
2023-05-11T10:32:01.100Z,1014.34
2023-05-11T10:33:01.173Z,1014.39
2023-05-11T10:34:01.416Z,1014.37
2023-05-11T10:35:01.158Z,1014.45
2023-05-11T10:36:01.059Z,1014.44
2023-05-11T10:37:03.605Z,1014.36
2023-05-11T10:38:01.355Z,1014.35
2023-05-11T10:39:01.323Z,1014.41
2023-05-11T10:40:01.926Z,1014.4
2023-05-11T10:41:02.080Z,1014.39
2023-05-11T10:42:05.862Z,1014.38
2023-05-11T10:43:01.488Z,1014.45
2023-05-11T10:44:01.099Z,1014.38
2023-05-11T10:45:01.097Z,1014.36
2023-05-11T10:46:01.159Z,1014.38
2023-05-11T10:47:07.810Z,1014.4
2023-05-11T10:48:00.824Z,1014.45
2023-05-11T10:49:00.405Z,1014.46
2023-05-11T10:50:00.184Z,1014.4
2023-05-11T10:50:59.801Z,1014.36
2023-05-11T10:52:11.821Z,1014.39
2023-05-11T10:53:02.248Z,1014.4
2023-05-11T10:53:59.498Z,1014.38
2023-05-11T10:55:01.057Z,1014.39
2023-05-11T10:56:01.070Z,1014.38
2023-05-11T10:57:13.677Z,1014.39
2023-05-11T10:58:01.917Z,1014.33
2023-05-11T10:59:01.896Z,1014.37
2023-05-11T11:00:01.089Z,1014.35
2023-05-11T11:01:01.156Z,1014.35
2023-05-11T11:02:17.002Z,1014.37
2023-05-11T11:03:03.001Z,1014.32
2023-05-11T11:04:01.495Z,1014.37
2023-05-11T11:05:01.161Z,1014.4
2023-05-11T11:06:01.172Z,1014.42
2023-05-11T11:07:00.638Z,1014.39
2023-05-11T11:08:00.425Z,1014.41
2023-05-11T11:09:00.233Z,1014.44
2023-05-11T11:09:59.818Z,1014.36
2023-05-11T11:11:01.489Z,1014.41
2023-05-11T11:12:01.101Z,1014.42
2023-05-11T11:13:01.101Z,1014.44
2023-05-11T11:14:00.266Z,1014.44
2023-05-11T11:14:59.951Z,1014.47
2023-05-11T11:15:59.675Z,1014.53
2023-05-11T11:17:01.334Z,1014.45
2023-05-11T11:18:01.942Z,1014.5
2023-05-11T11:19:01.328Z,1014.54
2023-05-11T11:20:01.284Z,1014.55
2023-05-11T11:21:01.038Z,1014.5
2023-05-11T11:22:01.060Z,1014.53
2023-05-11T11:23:01.056Z,1014.51
2023-05-11T11:24:01.029Z,1014.55
2023-05-11T11:25:01.164Z,1014.57
2023-05-11T11:26:01.089Z,1014.5
2023-05-11T11:27:01.842Z,1014.53
2023-05-11T11:28:01.471Z,1014.49
2023-05-11T11:29:01.236Z,1014.55
2023-05-11T11:30:02.278Z,1014.55
2023-05-11T11:31:01.169Z,1014.6
2023-05-11T11:32:01.101Z,1014.57
2023-05-11T11:33:01.213Z,1014.6
2023-05-11T11:34:01.116Z,1014.56
2023-05-11T11:35:01.023Z,1014.55
2023-05-11T11:36:01.259Z,1014.54
2023-05-11T11:37:01.098Z,1014.6
2023-05-11T11:38:01.465Z,1014.61
2023-05-11T11:39:01.038Z,1014.61
2023-05-11T11:40:13.305Z,1014.58
2023-05-11T11:41:01.094Z,1014.56
2023-05-11T11:42:01.065Z,1014.6
2023-05-11T11:43:01.398Z,1014.62
2023-05-11T11:44:01.467Z,1014.66
2023-05-11T11:45:01.227Z,1014.6
2023-05-11T11:46:01.150Z,1014.6
2023-05-11T11:47:00.567Z,1014.56
2023-05-11T11:48:00.281Z,1014.55
2023-05-11T11:48:59.966Z,1014.54
2023-05-11T11:49:59.569Z,1014.53
2023-05-11T11:51:02.674Z,1014.51
2023-05-11T11:52:01.459Z,1014.53
2023-05-11T11:53:01.037Z,1014.48
2023-05-11T11:54:01.229Z,1014.5
2023-05-11T11:55:01.036Z,1014.5
2023-05-11T11:56:01.070Z,1014.47
2023-05-11T11:57:01.049Z,1014.5
2023-05-11T11:58:01.165Z,1014.47
2023-05-11T11:59:01.415Z,1014.48
2023-05-11T12:00:02.091Z,1014.52
2023-05-11T12:01:01.091Z,1014.56
2023-05-11T12:02:01.092Z,1014.56
2023-05-11T12:03:01.132Z,1014.55
2023-05-11T12:04:01.185Z,1014.5
2023-05-11T12:05:01.202Z,1014.53
2023-05-11T12:06:01.167Z,1014.53
2023-05-11T12:07:00.949Z,1014.54
2023-05-11T12:08:01.087Z,1014.58
2023-05-11T12:09:01.047Z,1014.56